createdAt,value
2019-05-17T00:00:18.000Z,26.5
2019-05-17T00:02:03.000Z,26.5
2019-05-17T00:03:06.000Z,26.5
2019-05-17T00:04:18.000Z,26.5
2019-05-17T00:06:05.000Z,26.5
2019-05-17T00:08:18.000Z,26.4
2019-05-17T00:09:18.000Z,26.4
2019-05-17T00:11:03.000Z,26.4
2019-05-17T00:12:18.000Z,26.4
2019-05-17T00:14:03.000Z,26.4
2019-05-17T00:15:18.000Z,26.4
2019-05-17T00:17:03.000Z,26.4
2019-05-17T00:18:05.000Z,26.4
2019-05-17T00:19:18.000Z,26.4
2019-05-17T00:21:18.000Z,26.5
2019-05-17T00:22:18.000Z,26.5
2019-05-17T00:24:03.000Z,26.6
2019-05-17T00:25:18.000Z,26.5
2019-05-17T00:27:03.000Z,26.5
2019-05-17T00:28:18.000Z,26.5
2019-05-17T00:30:03.000Z,26.6
2019-05-17T00:31:03.000Z,26.6
2019-05-17T00:32:05.000Z,26.5
2019-05-17T00:33:18.000Z,26.5
2019-05-17T00:35:03.000Z,26.5
2019-05-17T00:37:06.000Z,26.4
2019-05-17T00:39:18.000Z,26.4
2019-05-17T00:40:18.000Z,26.4
2019-05-17T00:42:03.000Z,26.5
2019-05-17T00:44:05.000Z,26.5
2019-05-17T00:46:05.000Z,26.4
2019-05-17T00:48:05.000Z,26.4
2019-05-17T00:50:18.000Z,26.4
2019-05-17T00:52:18.000Z,26.5
2019-05-17T00:54:03.000Z,26.6
2019-05-17T00:55:05.000Z,26.6
2019-05-17T00:57:18.000Z,26.5
2019-05-17T00:59:19.000Z,26.5
2019-05-17T01:01:19.000Z,26.5
2019-05-17T01:03:04.000Z,26.5
2019-05-17T01:04:06.000Z,26.5
2019-05-17T01:06:06.000Z,26.4
2019-05-17T01:08:04.000Z,26.4
2019-05-17T01:09:19.000Z,26.4
2019-05-17T01:11:04.000Z,26.4
2019-05-17T01:12:19.000Z,26.4
2019-05-17T01:14:04.000Z,26.4
2019-05-17T01:15:19.000Z,26.3
2019-05-17T01:17:19.000Z,26.4
2019-05-17T01:19:04.000Z,26.4
2019-05-17T01:20:06.000Z,26.4
2019-05-17T01:22:37.000Z,26.4
2019-05-17T01:24:37.000Z,26.6
2019-05-17T01:25:37.000Z,26.7
2019-05-17T01:26:37.000Z,26.9
2019-05-17T01:27:37.000Z,27
2019-05-17T01:29:37.000Z,27.1
2019-05-17T01:30:37.000Z,27.2
2019-05-17T01:32:37.000Z,27.4
2019-05-17T01:34:37.000Z,27.4
2019-05-17T01:35:37.000Z,27.4
2019-05-17T01:36:37.000Z,27.4
2019-05-17T01:37:37.000Z,27.4
2019-05-17T01:38:37.000Z,27.5
2019-05-17T01:40:37.000Z,27.6
2019-05-17T01:42:37.000Z,27.5
2019-05-17T01:44:37.000Z,27.5
2019-05-17T01:46:37.000Z,27.5
2019-05-17T01:47:37.000Z,27.5
2019-05-17T01:49:37.000Z,27.5
2019-05-17T01:50:37.000Z,27.5
2019-05-17T01:52:37.000Z,27.5
2019-05-17T01:53:37.000Z,27.5
2019-05-17T01:55:37.000Z,27.6
2019-05-17T01:56:37.000Z,27.6
2019-05-17T01:58:37.000Z,27.6
2019-05-17T01:59:37.000Z,27.7
2019-05-17T02:00:37.000Z,27.7
2019-05-17T02:01:37.000Z,27.7
2019-05-17T02:02:37.000Z,27.8
2019-05-17T02:04:37.000Z,27.8
2019-05-17T02:05:37.000Z,27.8
2019-05-17T02:06:37.000Z,27.8
2019-05-17T02:08:37.000Z,27.8
2019-05-17T02:10:36.000Z,27.7
2019-05-17T02:12:37.000Z,27.6
2019-05-17T02:14:37.000Z,27.5
2019-05-17T02:16:37.000Z,27.5
2019-05-17T02:17:37.000Z,27.5
2019-05-17T02:18:37.000Z,27.5
2019-05-17T02:20:37.000Z,27.5
2019-05-17T02:21:37.000Z,27.4
2019-05-17T02:23:37.000Z,27.4
2019-05-17T02:24:37.000Z,27.4
2019-05-17T02:25:37.000Z,27.4
2019-05-17T02:27:22.000Z,27.5
2019-05-17T02:28:37.000Z,27.4
2019-05-17T02:29:37.000Z,27.3
2019-05-17T02:31:24.000Z,27.3
2019-05-17T02:33:22.000Z,27.2
2019-05-17T02:34:23.000Z,27
2019-05-17T02:36:22.000Z,26.8
2019-05-17T02:38:37.000Z,26.7
2019-05-17T02:40:22.000Z,26.7
2019-05-17T02:41:37.000Z,26.7
2019-05-17T02:43:22.000Z,26.8
2019-05-17T02:44:23.000Z,26.7
2019-05-17T02:46:23.000Z,26.6
2019-05-17T02:48:23.000Z,26.6
2019-05-17T02:50:23.000Z,26.5
2019-05-17T02:52:22.000Z,26.5
2019-05-17T02:54:22.000Z,26.5
2019-05-17T02:55:22.000Z,26.4
2019-05-17T02:56:22.000Z,26.4
2019-05-17T02:58:23.000Z,26.4
2019-05-17T03:00:23.000Z,26.3
2019-05-17T03:02:22.000Z,26.4
2019-05-17T03:03:23.000Z,26.3
2019-05-17T03:05:23.000Z,26.3
2019-05-17T03:07:22.000Z,26.3
2019-05-17T03:09:22.000Z,26.3
2019-05-17T03:11:22.000Z,26.3
2019-05-17T03:13:23.000Z,26.3
2019-05-17T03:15:22.000Z,26.3
2019-05-17T03:16:23.000Z,26.3
2019-05-17T03:18:22.000Z,26.2
2019-05-17T03:19:22.000Z,26.2
2019-05-17T03:20:23.000Z,26.2
2019-05-17T03:22:22.000Z,26.2
2019-05-17T03:24:22.000Z,26.2
2019-05-17T03:26:22.000Z,26.2
2019-05-17T03:27:22.000Z,26.2
2019-05-17T03:28:23.000Z,26.2
2019-05-17T03:30:22.000Z,26.1
2019-05-17T03:31:26.000Z,26
2019-05-17T03:32:26.000Z,26
2019-05-17T03:33:26.000Z,26
2019-05-17T03:35:22.000Z,25.9
2019-05-17T03:36:26.000Z,25.8
2019-05-17T03:37:31.000Z,25.8
2019-05-17T03:38:37.000Z,25.8
2019-05-17T03:40:22.000Z,25.9
2019-05-17T03:41:22.000Z,25.9
2019-05-17T03:42:37.000Z,25.8
2019-05-17T03:44:37.000Z,25.9
2019-05-17T03:46:23.000Z,26
2019-05-17T03:47:37.000Z,26.1
2019-05-17T03:49:37.000Z,26.2
2019-05-17T03:51:22.000Z,26.3
2019-05-17T03:53:22.000Z,26.2
2019-05-17T03:55:23.000Z,26.2
2019-05-17T03:57:22.000Z,26.2
2019-05-17T03:58:23.000Z,26.1
2019-05-17T04:00:22.000Z,26.1
2019-05-17T04:01:22.000Z,26
2019-05-17T04:02:22.000Z,26
2019-05-17T04:04:22.000Z,26
2019-05-17T04:06:23.000Z,26.1
2019-05-17T04:08:22.000Z,26.1
2019-05-17T04:09:37.000Z,26.2
2019-05-17T04:11:22.000Z,26.3
2019-05-17T04:12:23.000Z,26.2
2019-05-17T04:14:37.000Z,26.2
2019-05-17T04:16:22.000Z,26.2
2019-05-17T04:17:22.000Z,26.2
2019-05-17T04:19:22.000Z,26.2
2019-05-17T04:20:37.000Z,26.2
2019-05-17T04:22:23.000Z,26.3
2019-05-17T04:24:22.000Z,26.3
2019-05-17T04:26:22.000Z,26.2
2019-05-17T04:28:22.000Z,26.2
2019-05-17T04:30:23.000Z,26.3
2019-05-17T04:32:22.000Z,26.3
2019-05-17T04:34:37.000Z,26.2
2019-05-17T04:36:37.000Z,26.2
2019-05-17T04:38:23.000Z,26.4
2019-05-17T04:39:37.000Z,26.4
2019-05-17T04:41:37.000Z,26.6
2019-05-17T04:43:22.000Z,26.6
2019-05-17T04:45:23.000Z,26.4
2019-05-17T04:47:23.000Z,26.4
2019-05-17T04:49:24.000Z,26.5
2019-05-17T04:51:23.000Z,26.5
2019-05-17T04:53:23.000Z,26.6
2019-05-17T04:54:37.000Z,26.6
2019-05-17T04:56:22.000Z,26.7
2019-05-17T04:57:22.000Z,26.7
2019-05-17T04:58:23.000Z,26.8
2019-05-17T05:00:37.000Z,26.8
2019-05-17T05:02:23.000Z,26.8
2019-05-17T05:04:37.000Z,26.8
2019-05-17T05:06:22.000Z,26.7
2019-05-17T05:07:37.000Z,26.4
2019-05-17T05:09:22.000Z,26
2019-05-17T05:10:22.000Z,25.8
2019-05-17T05:11:23.000Z,25.5
2019-05-17T05:13:22.000Z,25
2019-05-17T05:14:22.000Z,24.8
2019-05-17T05:16:37.000Z,24.3
2019-05-17T05:18:37.000Z,24.1
2019-05-17T05:20:37.000Z,24
2019-05-17T05:22:37.000Z,23.9
2019-05-17T05:24:22.000Z,23.7
2019-05-17T05:25:37.000Z,23.6
2019-05-17T05:27:37.000Z,23.5
2019-05-17T05:28:37.000Z,23.5
2019-05-17T05:29:37.000Z,23.6
2019-05-17T05:30:37.000Z,23.7
2019-05-17T05:31:37.000Z,23.7
2019-05-17T05:33:37.000Z,23.8
2019-05-17T05:35:37.000Z,23.7
2019-05-17T05:37:22.000Z,23.7
2019-05-17T05:38:37.000Z,23.6
2019-05-17T05:40:37.000Z,23.5
2019-05-17T05:41:37.000Z,23.5
2019-05-17T05:43:37.000Z,23.5
2019-05-17T05:44:37.000Z,23.6
2019-05-17T05:46:37.000Z,23.6
2019-05-17T05:48:37.000Z,23.5
2019-05-17T05:50:37.000Z,23.4
2019-05-17T05:51:37.000Z,23.4
2019-05-17T05:52:37.000Z,23.5
2019-05-17T05:53:37.000Z,23.5
2019-05-17T05:54:37.000Z,23.5
2019-05-17T05:56:37.000Z,23.5
2019-05-17T05:57:37.000Z,23.5
2019-05-17T05:59:37.000Z,23.4
2019-05-17T06:01:37.000Z,23.4
2019-05-17T06:03:37.000Z,23.4
2019-05-17T06:05:37.000Z,23.3
2019-05-17T06:06:37.000Z,23.3
2019-05-17T06:07:37.000Z,23.3
2019-05-17T06:09:37.000Z,23.4
2019-05-17T06:10:37.000Z,23.4
2019-05-17T06:12:22.000Z,23.4
2019-05-17T06:13:37.000Z,23.3
2019-05-17T06:15:37.000Z,23.2
2019-05-17T06:16:37.000Z,23.2
2019-05-17T06:18:37.000Z,23.3
2019-05-17T06:19:37.000Z,23.4
2019-05-17T06:20:37.000Z,23.4
2019-05-17T06:21:37.000Z,23.5
2019-05-17T06:22:37.000Z,23.6
2019-05-17T06:24:37.000Z,23.6
2019-05-17T06:26:23.000Z,23.6
2019-05-17T06:27:37.000Z,23.5
2019-05-17T06:28:37.000Z,23.6
2019-05-17T06:29:37.000Z,23.6
2019-05-17T06:31:22.000Z,23.7
2019-05-17T06:32:22.000Z,23.6
2019-05-17T06:34:37.000Z,23.5
2019-05-17T06:35:37.000Z,23.5
2019-05-17T06:37:37.000Z,23.6
2019-05-17T06:39:37.000Z,23.5
2019-05-17T06:41:37.000Z,23.5
2019-05-17T06:43:22.000Z,23.5
2019-05-17T06:44:37.000Z,23.4
2019-05-17T06:45:37.000Z,23.4
2019-05-17T06:47:37.000Z,23.5
2019-05-17T06:48:37.000Z,23.5
2019-05-17T06:49:37.000Z,23.6
2019-05-17T06:51:37.000Z,23.6
2019-05-17T06:52:37.000Z,23.6
2019-05-17T06:53:37.000Z,23.7
2019-05-17T06:55:22.000Z,23.8
2019-05-17T06:56:22.000Z,23.8
2019-05-17T06:58:22.000Z,23.6
2019-05-17T06:59:37.000Z,23.6
2019-05-17T07:01:37.000Z,23.6
2019-05-17T07:02:37.000Z,23.6
2019-05-17T07:04:37.000Z,23.6
2019-05-17T07:05:37.000Z,23.6
2019-05-17T07:06:37.000Z,23.5
2019-05-17T07:08:37.000Z,23.5
2019-05-17T07:09:37.000Z,23.5
2019-05-17T07:10:37.000Z,23.5
2019-05-17T07:12:37.000Z,23.5
2019-05-17T07:13:37.000Z,23.5
2019-05-17T07:14:37.000Z,23.4
2019-05-17T07:16:37.000Z,23.4
2019-05-17T07:18:37.000Z,23.2
2019-05-17T07:20:37.000Z,23
2019-05-17T07:22:37.000Z,22.9
2019-05-17T07:24:37.000Z,22.8
2019-05-17T07:26:22.000Z,22.8
2019-05-17T07:27:37.000Z,22.8
2019-05-17T07:28:37.000Z,22.8
2019-05-17T07:30:22.000Z,22.8
2019-05-17T07:31:22.000Z,22.8
2019-05-17T07:32:37.000Z,22.8
2019-05-17T07:33:37.000Z,22.9
2019-05-17T07:34:37.000Z,22.9
2019-05-17T07:36:22.000Z,22.9
2019-05-17T07:37:37.000Z,23
2019-05-17T07:38:37.000Z,22.9
2019-05-17T07:40:37.000Z,22.9
2019-05-17T07:42:37.000Z,22.9
2019-05-17T07:44:37.000Z,22.9
2019-05-17T07:46:37.000Z,22.9
2019-05-17T07:48:37.000Z,23
2019-05-17T07:50:37.000Z,23
2019-05-17T07:52:37.000Z,23
2019-05-17T07:54:37.000Z,23
2019-05-17T07:56:36.000Z,22.9
2019-05-17T07:57:36.000Z,22.8
2019-05-17T07:58:36.000Z,22.8
2019-05-17T07:59:36.000Z,22.8
2019-05-17T08:00:36.000Z,22.8
2019-05-17T08:02:21.000Z,22.8
2019-05-17T08:03:24.000Z,22.8
2019-05-17T08:04:36.000Z,22.8
2019-05-17T08:06:36.000Z,22.7
2019-05-17T08:07:36.000Z,22.7
2019-05-17T08:09:36.000Z,22.7
2019-05-17T08:10:37.000Z,22.7
2019-05-17T08:12:37.000Z,22.8
2019-05-17T08:14:22.000Z,22.9
2019-05-17T08:15:37.000Z,22.9
2019-05-17T08:17:37.000Z,22.9
2019-05-17T08:19:37.000Z,22.9
2019-05-17T08:21:36.000Z,22.9
2019-05-17T08:22:36.000Z,23
2019-05-17T08:23:37.000Z,23
2019-05-17T08:25:36.000Z,22.9
2019-05-17T08:27:37.000Z,22.9
2019-05-17T08:29:37.000Z,22.9
2019-05-17T08:31:37.000Z,22.9
2019-05-17T08:33:37.000Z,23
2019-05-17T08:35:37.000Z,23
2019-05-17T08:37:37.000Z,23.1
2019-05-17T08:39:37.000Z,23
2019-05-17T08:41:37.000Z,23
2019-05-17T08:43:37.000Z,23
2019-05-17T08:45:37.000Z,22.9
2019-05-17T08:47:21.000Z,22.9
2019-05-17T08:48:36.000Z,22.9
2019-05-17T08:50:37.000Z,22.9
2019-05-17T08:52:37.000Z,22.9
2019-05-17T08:54:37.000Z,22.8
2019-05-17T08:56:37.000Z,22.7
2019-05-17T08:58:37.000Z,22.8
2019-05-17T09:00:37.000Z,22.8
2019-05-17T09:02:37.000Z,22.9
2019-05-17T09:04:37.000Z,23
2019-05-17T09:06:37.000Z,23
2019-05-17T09:08:37.000Z,23
2019-05-17T09:10:37.000Z,22.9
2019-05-17T09:11:37.000Z,22.9
2019-05-17T09:13:37.000Z,22.8
2019-05-17T09:15:37.000Z,22.8
2019-05-17T09:17:37.000Z,22.7
2019-05-17T09:19:37.000Z,22.6
2019-05-17T09:21:37.000Z,22.5
2019-05-17T09:23:37.000Z,22.4
2019-05-17T09:24:37.000Z,22.4
2019-05-17T09:26:37.000Z,22.4
2019-05-17T09:28:22.000Z,22.5
2019-05-17T09:29:37.000Z,22.7
2019-05-17T09:31:37.000Z,22.9
2019-05-17T09:32:37.000Z,23.1
2019-05-17T09:34:37.000Z,23.4
2019-05-17T09:36:37.000Z,23.6
2019-05-17T09:37:37.000Z,23.7
2019-05-17T09:39:37.000Z,24
2019-05-17T09:40:37.000Z,24.1
2019-05-17T09:42:37.000Z,24.3
2019-05-17T09:44:37.000Z,24.5
2019-05-17T09:46:37.000Z,24.6
2019-05-17T09:48:37.000Z,24.7
2019-05-17T09:49:37.000Z,24.7
2019-05-17T09:51:37.000Z,24.9
2019-05-17T09:53:37.000Z,25
2019-05-17T09:55:37.000Z,25.1
2019-05-17T09:56:37.000Z,25.2
2019-05-17T09:57:37.000Z,25.2
2019-05-17T09:58:37.000Z,25.3
2019-05-17T10:00:37.000Z,25.4
2019-05-17T10:02:37.000Z,25.7
2019-05-17T10:04:37.000Z,25.8
2019-05-17T10:05:37.000Z,25.9
2019-05-17T10:07:37.000Z,25.9
2019-05-17T10:09:37.000Z,25.9
2019-05-17T10:11:37.000Z,26
2019-05-17T10:13:37.000Z,26.1
2019-05-17T10:15:37.000Z,26.3
2019-05-17T10:16:37.000Z,26.3
2019-05-17T10:18:37.000Z,26.5
2019-05-17T10:20:37.000Z,26.5
2019-05-17T10:22:37.000Z,26.6
2019-05-17T10:23:37.000Z,26.6
2019-05-17T10:25:37.000Z,26.7
2019-05-17T10:26:37.000Z,26.8
2019-05-17T10:27:37.000Z,26.9
2019-05-17T10:29:37.000Z,27.1
2019-05-17T10:30:37.000Z,27.2
2019-05-17T10:32:37.000Z,27.3
2019-05-17T10:34:37.000Z,27.3
2019-05-17T10:36:37.000Z,27.4
2019-05-17T10:38:37.000Z,27.7
2019-05-17T10:40:37.000Z,28.2
2019-05-17T10:42:37.000Z,29
2019-05-17T10:44:22.000Z,29.4
2019-05-17T10:45:37.000Z,29.3
2019-05-17T10:46:37.000Z,29.1
2019-05-17T10:48:37.000Z,28.8
2019-05-17T10:50:22.000Z,28.6
2019-05-17T10:51:37.000Z,28.4
2019-05-17T10:52:37.000Z,28.4
2019-05-17T10:53:37.000Z,28.3
2019-05-17T10:55:37.000Z,28
2019-05-17T10:57:37.000Z,27.8
2019-05-17T10:58:37.000Z,27.8
2019-05-17T11:00:37.000Z,27.9
2019-05-17T11:01:37.000Z,27.9
2019-05-17T11:02:37.000Z,28
2019-05-17T11:04:22.000Z,28.1
2019-05-17T11:05:37.000Z,28.1
2019-05-17T11:07:37.000Z,28
2019-05-17T11:09:37.000Z,28
2019-05-17T11:11:37.000Z,28
2019-05-17T11:12:37.000Z,28
2019-05-17T11:14:37.000Z,28.2
2019-05-17T11:16:37.000Z,28.4
2019-05-17T11:18:37.000Z,28.6
2019-05-17T11:20:37.000Z,28.7
2019-05-17T11:21:37.000Z,28.7
2019-05-17T11:23:37.000Z,28.8
2019-05-17T11:24:37.000Z,28.9
2019-05-17T11:25:37.000Z,28.9
2019-05-17T11:27:37.000Z,28.8
2019-05-17T11:29:37.000Z,28.7
2019-05-17T11:30:37.000Z,28.6
2019-05-17T11:31:37.000Z,28.6
2019-05-17T11:33:21.000Z,28.7
2019-05-17T11:34:22.000Z,28.6
2019-05-17T11:36:37.000Z,28.3
2019-05-17T11:37:37.000Z,28.3
2019-05-17T11:39:37.000Z,28.4
2019-05-17T11:40:37.000Z,28.4
2019-05-17T11:41:37.000Z,28.5
2019-05-17T11:43:37.000Z,28.6
2019-05-17T11:44:37.000Z,28.7
2019-05-17T11:46:35.000Z,28.8
2019-05-17T11:47:37.000Z,28.7
2019-05-17T11:48:37.000Z,28.7
2019-05-17T11:49:37.000Z,28.8
2019-05-17T11:51:21.000Z,29
2019-05-17T11:52:37.000Z,29
2019-05-17T11:53:37.000Z,29.1
2019-05-17T11:54:37.000Z,29.2
2019-05-17T11:56:37.000Z,29.3
2019-05-17T11:57:37.000Z,29.3
2019-05-17T11:58:37.000Z,29.4
2019-05-17T12:00:21.000Z,29.4
2019-05-17T12:01:37.000Z,29.4
2019-05-17T12:03:37.000Z,29.4
2019-05-17T12:05:37.000Z,29.4
2019-05-17T12:07:22.000Z,29.3
2019-05-17T12:08:37.000Z,29.3
2019-05-17T12:10:21.000Z,29.2
2019-05-17T12:11:37.000Z,29.1
2019-05-17T12:12:37.000Z,29.1
2019-05-17T12:13:37.000Z,29.1
2019-05-17T12:15:37.000Z,29.2
2019-05-17T12:17:37.000Z,29.1
2019-05-17T12:19:37.000Z,29.2
2019-05-17T12:20:37.000Z,29.2
2019-05-17T12:22:37.000Z,29.2
2019-05-17T12:23:37.000Z,29.2
2019-05-17T12:25:37.000Z,29.3
2019-05-17T12:26:37.000Z,29.4
2019-05-17T12:28:22.000Z,29.5
2019-05-17T12:29:37.000Z,29.5
2019-05-17T12:31:37.000Z,29.7
2019-05-17T12:32:37.000Z,29.8
2019-05-17T12:34:37.000Z,29.7
2019-05-17T12:35:37.000Z,29.6
2019-05-17T12:37:22.000Z,29.5
2019-05-17T12:38:37.000Z,29.4
2019-05-17T12:39:37.000Z,29.4
2019-05-17T12:40:37.000Z,29.4
2019-05-17T12:41:37.000Z,29.4
2019-05-17T12:43:22.000Z,29.5
2019-05-17T12:44:22.000Z,29.5
2019-05-17T12:45:37.000Z,29.4
2019-05-17T12:47:37.000Z,29.4
2019-05-17T12:48:37.000Z,29.4
2019-05-17T12:49:37.000Z,29.5
2019-05-17T12:51:37.000Z,29.8
2019-05-17T12:53:22.000Z,30
2019-05-17T12:54:37.000Z,30.1
2019-05-17T12:56:37.000Z,30.1
2019-05-17T12:57:37.000Z,30.1
2019-05-17T12:59:37.000Z,29.9
2019-05-17T13:01:37.000Z,29.8
2019-05-17T13:02:37.000Z,29.8
2019-05-17T13:04:37.000Z,29.8
2019-05-17T13:06:22.000Z,29.7
2019-05-17T13:07:37.000Z,29.6
2019-05-17T13:09:37.000Z,29.4
2019-05-17T13:10:37.000Z,29.3
2019-05-17T13:12:22.000Z,29.2
2019-05-17T13:13:37.000Z,29.1
2019-05-17T13:15:37.000Z,29.1
2019-05-17T13:17:37.000Z,29
2019-05-17T13:18:37.000Z,29
2019-05-17T13:20:37.000Z,29
2019-05-17T13:21:37.000Z,29
2019-05-17T13:23:37.000Z,29.1
2019-05-17T13:24:37.000Z,29.2
2019-05-17T13:26:37.000Z,29.4
2019-05-17T13:28:22.000Z,29.5
2019-05-17T13:29:37.000Z,29.5
2019-05-17T13:30:37.000Z,29.6
2019-05-17T13:31:37.000Z,29.6
2019-05-17T13:32:37.000Z,29.6
2019-05-17T13:34:37.000Z,29.7
2019-05-17T13:35:37.000Z,29.7
2019-05-17T13:37:37.000Z,29.8
2019-05-17T13:39:37.000Z,29.8
2019-05-17T13:41:22.000Z,29.7
2019-05-17T13:42:37.000Z,29.7
2019-05-17T13:44:37.000Z,29.6
2019-05-17T13:45:37.000Z,29.6
2019-05-17T13:47:22.000Z,29.5
2019-05-17T13:48:37.000Z,29.3
2019-05-17T13:50:22.000Z,29
2019-05-17T13:51:37.000Z,28.8
2019-05-17T13:53:37.000Z,28.6
2019-05-17T13:54:37.000Z,28.5
2019-05-17T13:55:37.000Z,28.5
2019-05-17T13:57:37.000Z,28.4
2019-05-17T13:58:37.000Z,28.4
2019-05-17T14:00:37.000Z,28.3
2019-05-17T14:02:22.000Z,28.3
2019-05-17T14:03:22.000Z,28.1
2019-05-17T14:04:37.000Z,28
2019-05-17T14:05:37.000Z,28
2019-05-17T14:07:37.000Z,28
2019-05-17T14:08:37.000Z,28
2019-05-17T14:09:37.000Z,28.1
2019-05-17T14:11:37.000Z,28.1
2019-05-17T14:12:37.000Z,28.1
2019-05-17T14:13:37.000Z,28.2
2019-05-17T14:15:37.000Z,28.1
2019-05-17T14:16:37.000Z,28.1
2019-05-17T14:17:37.000Z,28.2
2019-05-17T14:19:37.000Z,28.2
2019-05-17T14:21:37.000Z,28.1
2019-05-17T14:23:37.000Z,28
2019-05-17T14:24:37.000Z,28
2019-05-17T14:26:22.000Z,27.9
2019-05-17T14:27:37.000Z,27.9
2019-05-17T14:28:37.000Z,27.9
2019-05-17T14:30:37.000Z,27.9
2019-05-17T14:31:37.000Z,27.9
2019-05-17T14:33:37.000Z,27.9
2019-05-17T14:34:37.000Z,28
2019-05-17T14:36:37.000Z,28
2019-05-17T14:38:37.000Z,27.9
2019-05-17T14:39:37.000Z,27.9
2019-05-17T14:40:37.000Z,27.9
2019-05-17T14:42:37.000Z,27.8
2019-05-17T14:44:37.000Z,27.8
2019-05-17T14:46:22.000Z,27.8
2019-05-17T14:47:37.000Z,27.8
2019-05-17T14:48:37.000Z,27.8
2019-05-17T14:50:37.000Z,27.9
2019-05-17T14:52:37.000Z,27.9
2019-05-17T14:54:37.000Z,27.8
2019-05-17T14:56:37.000Z,27.8
2019-05-17T14:58:37.000Z,27.7
2019-05-17T14:59:37.000Z,27.7
2019-05-17T15:01:37.000Z,27.8
2019-05-17T15:03:37.000Z,27.7
2019-05-17T15:04:37.000Z,27.8
2019-05-17T15:06:37.000Z,27.9
2019-05-17T15:07:37.000Z,28
2019-05-17T15:08:37.000Z,28.1
2019-05-17T15:09:37.000Z,28.2
2019-05-17T15:10:37.000Z,28.3
2019-05-17T15:12:22.000Z,28.4
2019-05-17T15:13:37.000Z,28.3
2019-05-17T15:14:37.000Z,28.3
2019-05-17T15:16:37.000Z,28.4
2019-05-17T15:17:37.000Z,28.4
2019-05-17T15:18:37.000Z,28.5
2019-05-17T15:20:37.000Z,28.5
2019-05-17T15:21:37.000Z,28.5
2019-05-17T15:22:37.000Z,28.5
2019-05-17T15:24:37.000Z,28.5
2019-05-17T15:26:37.000Z,28.4
2019-05-17T15:28:22.000Z,28.2
2019-05-17T15:29:37.000Z,28.2
2019-05-17T15:31:37.000Z,28.2
2019-05-17T15:33:37.000Z,28.2
2019-05-17T15:35:37.000Z,28.2
2019-05-17T15:36:37.000Z,28.2
2019-05-17T15:38:37.000Z,28.3
2019-05-17T15:40:22.000Z,28.4
2019-05-17T15:41:37.000Z,28.3
2019-05-17T15:42:37.000Z,28.4
2019-05-17T15:44:37.000Z,28.4
2019-05-17T15:46:37.000Z,28.4
2019-05-17T15:48:22.000Z,28.5
2019-05-17T15:49:37.000Z,28.5
2019-05-17T15:50:37.000Z,28.6
2019-05-17T15:52:37.000Z,28.6
2019-05-17T15:53:37.000Z,28.6
2019-05-17T15:55:37.000Z,28.6
2019-05-17T15:56:37.000Z,28.6
2019-05-17T16:00:02.000Z,28.7
2019-05-17T16:01:46.000Z,28.8
2019-05-17T16:03:01.000Z,28.7
2019-05-17T16:04:01.000Z,28.7
2019-05-17T16:05:46.000Z,28.7
2019-05-17T16:07:01.000Z,28.7
2019-05-17T16:09:01.000Z,28.6
2019-05-17T16:10:01.000Z,28.6
2019-05-17T16:12:01.000Z,28.6
2019-05-17T16:14:01.000Z,28.5
2019-05-17T16:15:01.000Z,28.5
2019-05-17T16:16:01.000Z,28.5
2019-05-17T16:17:46.000Z,28.6
2019-05-17T16:19:01.000Z,28.6
2019-05-17T16:20:01.000Z,28.6
2019-05-17T16:21:01.000Z,28.6
2019-05-17T16:23:01.000Z,28.6
2019-05-17T16:24:01.000Z,28.6
2019-05-17T16:26:01.000Z,28.6
2019-05-17T16:28:02.000Z,28.4
2019-05-17T16:30:02.000Z,28.4
2019-05-17T16:32:02.000Z,28.3
2019-05-17T16:33:47.000Z,28.2
2019-05-17T16:35:02.000Z,28.1
2019-05-17T16:36:02.000Z,28.1
2019-05-17T16:37:02.000Z,28.1
2019-05-17T16:38:02.000Z,28.2
2019-05-17T16:39:02.000Z,28.3
2019-05-17T16:40:47.000Z,28.5
2019-05-17T16:42:02.000Z,28.5
2019-05-17T16:44:02.000Z,28.5
2019-05-17T16:45:47.000Z,28.4
2019-05-17T16:47:02.000Z,28.4
2019-05-17T16:48:02.000Z,28.4
2019-05-17T16:50:02.000Z,28.4
2019-05-17T16:51:02.000Z,28.4
2019-05-17T16:52:47.000Z,28.4
2019-05-17T16:54:02.000Z,28.3
2019-05-17T16:55:02.000Z,28.3
2019-05-17T16:57:02.000Z,28.2
2019-05-17T16:58:02.000Z,28.2
2019-05-17T17:00:02.000Z,28.2
2019-05-17T17:01:02.000Z,28.2
2019-05-17T17:03:02.000Z,28.1
2019-05-17T17:05:02.000Z,28
2019-05-17T17:06:02.000Z,28
2019-05-17T17:08:02.000Z,28
2019-05-17T17:09:47.000Z,28
2019-05-17T17:11:02.000Z,28
2019-05-17T17:13:02.000Z,28.1
2019-05-17T17:15:02.000Z,28
2019-05-17T17:16:02.000Z,28
2019-05-17T17:18:02.000Z,28
2019-05-17T17:19:02.000Z,28
2019-05-17T17:21:02.000Z,28
2019-05-17T17:22:47.000Z,28
2019-05-17T17:24:02.000Z,28
2019-05-17T17:25:47.000Z,28
2019-05-17T17:27:02.000Z,28
2019-05-17T17:28:47.000Z,28
2019-05-17T17:30:02.000Z,28
2019-05-17T17:31:02.000Z,28.1
2019-05-17T17:32:02.000Z,28.1
2019-05-17T17:34:02.000Z,28.2
2019-05-17T17:36:02.000Z,28.3
2019-05-17T17:38:02.000Z,28.1
2019-05-17T17:40:02.000Z,28.1
2019-05-17T17:42:02.000Z,28
2019-05-17T17:43:02.000Z,28
2019-05-17T17:45:02.000Z,28.1
2019-05-17T17:47:02.000Z,28
2019-05-17T17:48:02.000Z,28
2019-05-17T17:50:02.000Z,28
2019-05-17T17:51:02.000Z,28
2019-05-17T17:52:02.000Z,28
2019-05-17T17:54:02.000Z,28.1
2019-05-17T17:55:02.000Z,28.1
2019-05-17T17:56:02.000Z,28.2
2019-05-17T17:57:02.000Z,28.2
2019-05-17T17:59:02.000Z,28.2
2019-05-17T18:01:02.000Z,28.1
2019-05-17T18:02:02.000Z,28.1
2019-05-17T18:04:02.000Z,28.1
2019-05-17T18:05:02.000Z,28.1
2019-05-17T18:07:02.000Z,28.1
2019-05-17T18:08:02.000Z,28.1
2019-05-17T18:10:02.000Z,28.1
2019-05-17T18:12:02.000Z,28.1
2019-05-17T18:14:02.000Z,28
2019-05-17T18:15:47.000Z,27.8
2019-05-17T18:59:25.000Z,25.5
2019-05-17T19:00:25.000Z,25.6
2019-05-17T19:02:10.000Z,26
2019-05-17T19:03:25.000Z,26.2
2019-05-17T19:04:25.000Z,26.4
2019-05-17T19:06:25.000Z,26.7
2019-05-17T19:08:25.000Z,26.9
2019-05-17T19:09:25.000Z,26.9
2019-05-17T19:11:25.000Z,27.1
2019-05-17T19:12:25.000Z,27.2
2019-05-17T19:14:25.000Z,27.3
2019-05-17T19:16:25.000Z,27.4
2019-05-17T19:17:25.000Z,27.4
2019-05-17T19:19:10.000Z,27.4
2019-05-17T19:21:25.000Z,27.4
2019-05-17T19:23:25.000Z,27.2
2019-05-17T19:25:10.000Z,27.2
2019-05-17T19:26:25.000Z,27.2
2019-05-17T19:27:25.000Z,27.3
2019-05-17T19:29:25.000Z,27.3
2019-05-17T19:31:25.000Z,27.2
2019-05-17T19:32:25.000Z,27.2
2019-05-17T19:33:25.000Z,27.2
2019-05-17T19:34:25.000Z,27.3
2019-05-17T19:36:25.000Z,27.4
2019-05-17T19:37:25.000Z,27.4
2019-05-17T19:39:25.000Z,27.5
2019-05-17T19:41:25.000Z,27.5
2019-05-17T19:43:10.000Z,27.5
2019-05-17T19:44:25.000Z,27.5
2019-05-17T19:46:25.000Z,27.4
2019-05-17T19:47:25.000Z,27.5
2019-05-17T19:48:25.000Z,27.5
2019-05-17T19:50:25.000Z,27.6
2019-05-17T19:52:25.000Z,27.6
2019-05-17T19:53:25.000Z,27.6
2019-05-17T19:54:25.000Z,27.6
2019-05-17T19:56:25.000Z,27.7
2019-05-17T19:58:25.000Z,27.6
2019-05-17T20:00:10.000Z,27.6
2019-05-17T20:01:25.000Z,27.6
2019-05-17T20:02:25.000Z,27.6
2019-05-17T20:03:25.000Z,27.6
2019-05-17T20:05:25.000Z,27.6
2019-05-17T20:07:25.000Z,27.6
2019-05-17T20:08:25.000Z,27.6
2019-05-17T20:10:25.000Z,27.6
2019-05-17T20:12:25.000Z,27.6
2019-05-17T20:14:25.000Z,27.5
2019-05-17T20:16:25.000Z,27.4
2019-05-17T20:18:25.000Z,27.2
2019-05-17T20:19:25.000Z,27.2
2019-05-17T20:20:25.000Z,27.3
2019-05-17T20:22:25.000Z,27.4
2019-05-17T20:24:25.000Z,27.4
2019-05-17T20:26:25.000Z,27.4
2019-05-17T20:28:10.000Z,27.4
2019-05-17T20:29:10.000Z,27.4
2019-05-17T20:30:25.000Z,27.3
2019-05-17T20:32:25.000Z,27.3
2019-05-17T20:34:25.000Z,27.2
2019-05-17T20:35:25.000Z,27.3
2019-05-17T20:37:25.000Z,27.3
2019-05-17T20:38:25.000Z,27.3
2019-05-17T20:40:25.000Z,27.4
2019-05-17T20:42:25.000Z,27.3
2019-05-17T20:43:25.000Z,27.3
2019-05-17T20:44:25.000Z,27.3
2019-05-17T20:46:25.000Z,27.4
2019-05-17T20:47:25.000Z,27.4
2019-05-17T20:49:25.000Z,27.4
2019-05-17T20:50:25.000Z,27.4
2019-05-17T20:51:25.000Z,27.5
2019-05-17T20:53:10.000Z,27.5
2019-05-17T20:54:25.000Z,27.4
2019-05-17T20:55:25.000Z,27.4
2019-05-17T20:57:25.000Z,27.2
2019-05-17T20:58:25.000Z,27.2
2019-05-17T21:00:25.000Z,27.3
2019-05-17T21:01:25.000Z,27.3
2019-05-17T21:03:10.000Z,27.3
2019-05-17T21:46:49.000Z,25
2019-05-17T21:48:49.000Z,25.3
2019-05-17T21:50:49.000Z,25.6
2019-05-17T21:51:49.000Z,25.8
2019-05-17T21:53:49.000Z,26.1
2019-05-17T21:55:49.000Z,26.3
2019-05-17T21:56:49.000Z,26.4
2019-05-17T21:58:49.000Z,26.5
2019-05-17T21:59:49.000Z,26.6
2019-05-17T22:00:49.000Z,26.7
2019-05-17T22:02:34.000Z,26.9
2019-05-17T22:03:49.000Z,26.9
2019-05-17T22:04:49.000Z,27
2019-05-17T22:06:49.000Z,27
2019-05-17T22:07:49.000Z,27
2019-05-17T22:09:49.000Z,27.1
2019-05-17T22:11:49.000Z,27.1
2019-05-17T22:13:49.000Z,27.1
2019-05-17T22:15:49.000Z,27
2019-05-17T22:17:49.000Z,26.9
2019-05-17T22:18:49.000Z,26.9
2019-05-17T22:20:49.000Z,26.9
2019-05-17T22:21:49.000Z,26.9